createdAt,value
2023-03-04T00:00:04.513Z,99201.00
2023-03-04T00:02:36.780Z,99196.00
2023-03-04T00:05:03.744Z,99191.00
2023-03-04T00:07:30.448Z,99203.00
2023-03-04T00:09:57.012Z,99208.00
2023-03-04T00:12:23.623Z,99199.00
2023-03-04T00:14:50.178Z,99199.00
2023-03-04T00:17:16.687Z,99198.00
2023-03-04T00:19:43.222Z,99199.00
2023-03-04T00:22:09.997Z,99195.00
2023-03-04T00:24:36.580Z,99207.00
2023-03-04T00:27:03.137Z,99198.00
2023-03-04T00:29:29.659Z,99193.00
2023-03-04T00:31:56.356Z,99194.00
2023-03-04T00:34:23.000Z,99192.00
2023-03-04T00:36:49.645Z,99192.00
2023-03-04T00:39:17.299Z,99189.00
2023-03-04T00:41:43.811Z,99186.00
2023-03-04T00:44:10.459Z,99195.00
2023-03-04T00:46:38.249Z,99190.00
2023-03-04T00:49:04.741Z,99193.00
2023-03-04T00:51:31.524Z,99189.00
2023-03-04T00:54:00.688Z,99188.00
2023-03-04T00:56:27.544Z,99192.00
2023-03-04T00:58:54.854Z,99189.00
2023-03-04T01:01:21.471Z,99184.00
2023-03-04T01:03:47.991Z,99189.00
2023-03-04T01:06:14.550Z,99184.00
2023-03-04T01:08:41.545Z,99178.00
2023-03-04T01:11:08.455Z,99180.00
2023-03-04T01:13:35.087Z,99172.00
2023-03-04T01:16:03.318Z,99179.00
2023-03-04T01:18:29.833Z,99175.00
2023-03-04T01:20:56.904Z,99173.00
2023-03-04T01:23:23.378Z,99178.00
2023-03-04T01:25:49.976Z,99171.00
2023-03-04T01:28:16.663Z,99172.00
2023-03-04T01:30:43.164Z,99156.00
2023-03-04T01:33:09.887Z,99159.00
2023-03-04T01:35:36.560Z,99151.00
2023-03-04T01:38:03.871Z,99148.00
2023-03-04T01:40:31.988Z,99144.00
2023-03-04T01:42:58.987Z,99141.00
2023-03-04T01:45:25.660Z,99145.00
2023-03-04T01:47:52.507Z,99139.00
2023-03-04T01:50:23.685Z,99138.00
2023-03-04T01:52:50.274Z,99135.00
2023-03-04T01:55:19.544Z,99144.00
2023-03-04T01:57:47.837Z,99132.00
2023-03-04T02:00:30.830Z,99137.00
2023-03-04T02:03:07.888Z,99134.00
2023-03-04T02:05:37.107Z,99122.00
2023-03-04T02:08:04.929Z,99134.00
2023-03-04T02:10:32.409Z,99122.00
2023-03-04T02:13:00.859Z,99130.00
2023-03-04T02:15:28.994Z,99127.00
2023-03-04T02:17:55.486Z,99118.00
2023-03-04T02:20:35.246Z,99115.00
2023-03-04T02:23:11.637Z,99115.00
2023-03-04T02:26:17.178Z,99111.00
2023-03-04T02:28:45.630Z,99101.00
2023-03-04T02:31:34.703Z,99104.00
2023-03-04T02:34:04.575Z,99104.00
2023-03-04T02:36:32.299Z,99101.00
2023-03-04T02:39:07.206Z,99098.00
2023-03-04T02:41:34.414Z,99099.00
2023-03-04T02:44:01.324Z,99092.00
2023-03-04T02:46:28.320Z,99093.00
2023-03-04T02:48:55.093Z,99088.00
2023-03-04T02:51:21.811Z,99094.00
2023-03-04T02:53:48.435Z,99096.00
2023-03-04T02:56:15.235Z,99099.00
2023-03-04T02:58:41.750Z,99096.00
2023-03-04T03:01:10.392Z,99094.00
2023-03-04T03:03:37.278Z,99092.00
2023-03-04T03:06:04.221Z,99090.00
2023-03-04T03:08:30.815Z,99089.00
2023-03-04T03:10:57.367Z,99089.00
2023-03-04T03:13:25.290Z,99085.00
2023-03-04T03:15:52.420Z,99088.00
2023-03-04T03:18:19.102Z,99080.00
2023-03-04T03:20:45.943Z,99087.00
2023-03-04T03:23:12.536Z,99092.00
2023-03-04T03:25:39.101Z,99079.00
2023-03-04T03:28:06.034Z,99077.00
2023-03-04T03:30:32.847Z,99090.00
2023-03-04T03:32:59.335Z,99081.00
2023-03-04T03:35:25.861Z,99092.00
2023-03-04T03:37:52.563Z,99088.00
2023-03-04T03:40:19.035Z,99097.00
2023-03-04T03:42:45.517Z,99087.00
2023-03-04T03:45:12.748Z,99086.00
2023-03-04T03:47:39.356Z,99088.00
2023-03-04T03:50:06.470Z,99094.00
2023-03-04T03:52:33.017Z,99098.00
2023-03-04T03:55:02.064Z,99096.00
2023-03-04T03:57:29.387Z,99093.00
2023-03-04T03:59:56.287Z,99089.00
2023-03-04T04:02:23.041Z,99085.00
2023-03-04T04:04:49.773Z,99090.00
2023-03-04T04:07:16.530Z,99096.00
2023-03-04T04:09:43.280Z,99083.00
2023-03-04T04:12:13.017Z,99088.00
2023-03-04T04:14:39.827Z,99093.00
2023-03-04T04:17:06.345Z,99090.00
2023-03-04T04:19:32.913Z,99083.00
2023-03-04T04:21:59.382Z,99086.00
2023-03-04T04:24:25.984Z,99097.00
2023-03-04T04:26:52.822Z,99083.00
2023-03-04T04:29:19.560Z,99085.00
2023-03-04T04:31:46.058Z,99077.00
2023-03-04T04:34:12.520Z,99083.00
2023-03-04T04:36:39.022Z,99079.00
2023-03-04T04:39:05.576Z,99086.00
2023-03-04T04:41:39.755Z,99080.00
2023-03-04T04:44:06.783Z,99075.00
2023-03-04T04:46:33.744Z,99091.00
2023-03-04T04:49:00.807Z,99081.00
2023-03-04T04:51:27.593Z,99083.00
2023-03-04T04:53:54.145Z,99079.00
2023-03-04T04:56:24.627Z,99077.00
2023-03-04T04:58:51.094Z,99080.00
2023-03-04T05:01:17.680Z,99085.00
2023-03-04T05:03:44.345Z,99083.00
2023-03-04T05:06:12.933Z,99092.00
2023-03-04T05:08:39.440Z,99084.00
2023-03-04T05:11:07.133Z,99089.00
2023-03-04T05:13:33.938Z,99089.00
2023-03-04T05:16:01.716Z,99093.00
2023-03-04T05:18:29.014Z,99092.00
2023-03-04T05:21:00.986Z,99093.00
2023-03-04T05:23:32.183Z,99088.00
2023-03-04T05:25:58.678Z,99092.00
2023-03-04T05:28:25.168Z,99084.00
2023-03-04T05:30:51.885Z,99093.00
2023-03-04T05:33:19.342Z,99098.00
2023-03-04T05:35:48.621Z,99095.00
2023-03-04T05:38:17.512Z,99092.00
2023-03-04T05:40:44.635Z,99094.00
2023-03-04T05:43:11.706Z,99100.00
2023-03-04T05:45:39.198Z,99093.00
2023-03-04T05:48:06.247Z,99096.00
2023-03-04T05:50:33.019Z,99095.00
2023-03-04T05:52:59.743Z,99093.00
2023-03-04T05:55:28.997Z,99093.00
2023-03-04T05:57:55.878Z,99090.00
2023-03-04T06:00:22.469Z,99091.00
2023-03-04T06:02:49.002Z,99102.00
2023-03-04T06:05:16.324Z,99097.00
2023-03-04T06:07:43.953Z,99106.00
2023-03-04T06:10:13.184Z,99106.00
2023-03-04T06:12:40.363Z,99108.00
2023-03-04T06:15:10.006Z,99099.00
2023-03-04T06:17:39.493Z,99104.00
2023-03-04T06:20:09.019Z,99105.00
2023-03-04T06:22:35.752Z,99098.00
2023-03-04T06:25:02.318Z,99100.00
2023-03-04T06:27:28.830Z,99108.00
2023-03-04T06:29:55.350Z,99104.00
2023-03-04T06:32:22.124Z,99122.00
2023-03-04T06:34:48.606Z,99113.00
2023-03-04T06:37:15.203Z,99114.00
2023-03-04T06:39:41.718Z,99120.00
2023-03-04T06:42:08.219Z,99122.00
2023-03-04T06:44:34.721Z,99127.00
2023-03-04T06:47:01.259Z,99130.00
2023-03-04T06:49:27.810Z,99129.00
2023-03-04T06:51:54.372Z,99129.00
2023-03-04T06:54:20.925Z,99135.00
2023-03-04T06:56:47.411Z,99131.00
2023-03-04T06:59:14.064Z,99136.00
2023-03-04T07:01:40.593Z,99136.00
2023-03-04T07:04:07.327Z,99138.00
2023-03-04T07:06:34.215Z,99153.00
2023-03-04T07:09:00.823Z,99147.00
2023-03-04T07:11:27.629Z,99156.00
2023-03-04T07:13:55.769Z,99147.00
2023-03-04T07:16:23.673Z,99159.00
2023-03-04T07:18:50.586Z,99167.00
2023-03-04T07:21:17.432Z,99166.00
2023-03-04T07:23:44.787Z,99167.00
2023-03-04T07:26:11.532Z,99168.00
2023-03-04T07:28:38.281Z,99171.00
2023-03-04T07:31:13.317Z,99165.00
2023-03-04T07:33:39.976Z,99177.00
2023-03-04T07:36:06.599Z,99190.00
2023-03-04T07:38:33.200Z,99173.00
2023-03-04T07:40:59.779Z,99184.00
2023-03-04T07:43:26.652Z,99187.00
2023-03-04T07:45:58.043Z,99186.00
2023-03-04T07:48:24.611Z,99191.00
2023-03-04T07:50:51.154Z,99188.00
2023-03-04T07:53:17.653Z,99188.00
2023-03-04T07:55:48.141Z,99187.00
2023-03-04T07:58:14.672Z,99196.00
2023-03-04T08:00:41.414Z,99205.00
2023-03-04T08:03:07.869Z,99195.00
2023-03-04T08:05:34.363Z,99192.00
2023-03-04T08:08:00.891Z,99206.00
2023-03-04T08:10:27.516Z,99201.00
2023-03-04T08:12:54.052Z,99193.00
2023-03-04T08:15:20.808Z,99194.00
2023-03-04T08:17:47.351Z,99200.00
2023-03-04T08:20:14.010Z,99194.00
2023-03-04T08:22:40.525Z,99202.00
2023-03-04T08:25:07.327Z,99199.00
2023-03-04T08:27:33.862Z,99189.00
2023-03-04T08:30:00.446Z,99202.00
2023-03-04T08:32:27.057Z,99199.00
2023-03-04T08:34:56.454Z,99202.00
2023-03-04T08:37:23.787Z,99201.00
2023-03-04T08:39:50.271Z,99204.00
2023-03-04T08:42:16.755Z,99196.00
2023-03-04T08:44:43.257Z,99188.00
2023-03-04T08:47:10.293Z,99195.00
2023-03-04T08:49:36.842Z,99195.00
2023-03-04T08:52:03.694Z,99203.00
2023-03-04T08:54:30.415Z,99195.00
2023-03-04T08:56:57.089Z,99190.00
2023-03-04T08:59:24.292Z,99196.00
2023-03-04T09:01:51.489Z,99202.00
2023-03-04T09:04:18.079Z,99199.00
2023-03-04T09:06:44.647Z,99197.00
2023-03-04T09:09:11.121Z,99197.00
2023-03-04T09:11:38.154Z,99201.00
2023-03-04T09:14:04.681Z,99199.00
2023-03-04T09:16:31.225Z,99198.00
2023-03-04T09:18:58.081Z,99197.00
2023-03-04T09:21:24.683Z,99203.00
2023-03-04T09:23:51.327Z,99199.00
2023-03-04T09:26:26.899Z,99201.00
2023-03-04T09:28:58.506Z,99204.00
2023-03-04T09:31:25.906Z,99203.00
2023-03-04T09:33:53.805Z,99205.00
2023-03-04T09:36:20.707Z,99208.00
2023-03-04T09:38:47.220Z,99204.00
2023-03-04T09:41:40.301Z,99204.00
2023-03-04T09:44:15.172Z,99216.00
2023-03-04T09:46:44.083Z,99214.00
2023-03-04T09:49:13.079Z,99206.00
2023-03-04T09:52:04.420Z,99219.00
2023-03-04T09:54:49.615Z,99222.00
2023-03-04T09:57:43.412Z,99221.00
2023-03-04T10:00:20.166Z,99216.00
2023-03-04T10:03:05.744Z,99219.00
2023-03-04T10:05:36.830Z,99228.00
2023-03-04T10:08:33.943Z,99225.00
2023-03-04T10:11:03.287Z,99223.00
2023-03-04T10:13:37.857Z,99218.00
2023-03-04T10:16:08.791Z,99225.00
2023-03-04T10:18:49.725Z,99221.00
2023-03-04T10:21:30.766Z,99222.00
2023-03-04T10:24:00.125Z,99218.00
2023-03-04T10:26:30.586Z,99223.00
2023-03-04T10:28:57.079Z,99220.00
2023-03-04T10:31:43.729Z,99221.00
2023-03-04T10:34:12.513Z,99215.00
2023-03-04T10:36:57.308Z,99213.00
2023-03-04T10:39:37.309Z,99215.00
2023-03-04T10:42:24.308Z,99221.00
2023-03-04T10:45:00.157Z,99221.00
2023-03-04T10:47:33.013Z,99206.00
2023-03-04T10:50:01.939Z,99220.00
2023-03-04T10:52:38.404Z,99213.00
2023-03-04T10:55:15.393Z,99214.00
2023-03-04T10:57:44.677Z,99214.00
2023-03-04T11:00:17.428Z,99211.00
2023-03-04T11:02:45.826Z,99199.00
2023-03-04T11:05:15.583Z,99205.00
2023-03-04T11:08:00.230Z,99203.00
2023-03-04T11:10:35.831Z,99202.00
2023-03-04T11:13:12.697Z,99194.00
2023-03-04T11:15:58.168Z,99195.00
2023-03-04T11:18:31.398Z,99191.00
2023-03-04T11:20:59.812Z,99187.00
2023-03-04T11:23:32.202Z,99187.00
2023-03-04T11:26:05.505Z,99183.00
2023-03-04T11:28:50.384Z,99177.00
2023-03-04T11:31:23.619Z,99181.00
2023-03-04T11:33:55.673Z,99174.00
2023-03-04T11:36:49.631Z,99173.00
2023-03-04T11:39:32.629Z,99164.00
2023-03-04T11:42:05.390Z,99171.00
2023-03-04T11:44:31.958Z,99168.00
2023-03-04T11:47:16.854Z,99171.00
2023-03-04T11:50:04.006Z,99168.00
2023-03-04T11:53:10.688Z,99165.00
2023-03-04T11:56:14.693Z,99165.00
2023-03-04T11:59:06.877Z,99155.00
2023-03-04T12:01:48.531Z,99166.00
2023-03-04T12:04:27.582Z,99151.00
2023-03-04T12:07:12.358Z,99149.00
2023-03-04T12:10:06.898Z,99151.00
2023-03-04T12:12:58.416Z,99149.00
2023-03-04T12:15:43.222Z,99140.00
2023-03-04T12:18:19.336Z,99130.00
2023-03-04T12:21:04.540Z,99139.00
2023-03-04T12:23:40.117Z,99130.00
2023-03-04T12:26:16.036Z,99140.00
2023-03-04T12:28:52.446Z,99128.00
2023-03-04T12:31:34.603Z,99120.00
2023-03-04T12:34:19.443Z,99123.00
2023-03-04T12:36:59.922Z,99121.00
2023-03-04T12:39:33.920Z,99114.00
2023-03-04T12:42:37.566Z,99126.00
2023-03-04T12:45:30.255Z,99114.00
2023-03-04T12:48:10.455Z,99109.00
2023-03-04T12:50:48.081Z,99112.00
2023-03-04T12:53:14.524Z,99107.00
2023-03-04T12:55:45.061Z,99109.00
2023-03-04T12:58:32.331Z,99107.00
2023-03-04T13:01:25.827Z,99107.00
2023-03-04T13:04:08.387Z,99107.00
2023-03-04T13:06:48.739Z,99106.00
2023-03-04T13:09:30.109Z,99108.00
2023-03-04T13:12:24.981Z,99106.00
2023-03-04T13:15:06.644Z,99116.00
2023-03-04T13:17:51.228Z,99112.00
2023-03-04T13:20:30.060Z,99106.00
2023-03-04T13:23:01.729Z,99113.00
2023-03-04T13:25:37.628Z,99099.00
2023-03-04T13:28:10.265Z,99104.00
2023-03-04T13:30:38.153Z,99099.00
2023-03-04T13:33:13.636Z,99098.00
2023-03-04T13:35:49.545Z,99095.00
2023-03-04T13:38:28.477Z,99097.00
2023-03-04T13:41:19.596Z,99094.00
2023-03-04T13:43:52.088Z,99093.00
2023-03-04T13:46:18.734Z,99092.00
2023-03-04T13:48:51.573Z,99084.00
2023-03-04T13:51:44.083Z,99088.00
2023-03-04T13:54:27.540Z,99086.00
2023-03-04T13:56:59.998Z,99083.00
2023-03-04T13:59:42.124Z,99091.00
2023-03-04T14:02:15.730Z,99087.00
2023-03-04T14:04:44.770Z,99080.00
2023-03-04T14:07:19.602Z,99079.00
2023-03-04T14:09:58.335Z,99085.00
2023-03-04T14:12:26.132Z,99084.00
2023-03-04T14:14:54.976Z,99082.00
2023-03-04T14:17:29.711Z,99071.00
2023-03-04T14:19:56.922Z,99071.00
2023-03-04T14:22:34.127Z,99066.00
2023-03-04T14:25:07.902Z,99061.00
2023-03-04T14:27:36.436Z,99063.00
2023-03-04T14:30:06.895Z,99060.00
2023-03-04T14:32:33.603Z,99064.00
2023-03-04T14:35:18.193Z,99059.00
2023-03-04T14:37:54.651Z,99056.00
2023-03-04T14:40:25.642Z,99049.00
2023-03-04T14:42:58.594Z,99054.00
2023-03-04T14:45:26.008Z,99052.00
2023-03-04T14:47:57.088Z,99051.00
2023-03-04T14:50:23.689Z,99036.00
2023-03-04T14:53:05.076Z,99034.00
2023-03-04T14:55:31.610Z,99022.00
2023-03-04T14:58:10.473Z,99036.00
2023-03-04T15:00:40.857Z,99027.00
2023-03-04T15:03:22.789Z,99022.00
2023-03-04T15:05:49.845Z,99024.00
2023-03-04T15:08:21.579Z,99026.00
2023-03-04T15:10:59.600Z,99026.00
2023-03-04T15:13:39.948Z,99026.00
2023-03-04T15:16:07.179Z,99021.00
2023-03-04T15:18:33.936Z,99014.00
2023-03-04T15:21:02.824Z,99015.00
2023-03-04T15:23:31.023Z,99015.00
2023-03-04T15:26:02.812Z,99019.00
2023-03-04T15:28:35.943Z,99016.00
2023-03-04T15:31:03.182Z,99011.00
2023-03-04T15:33:29.872Z,99013.00
2023-03-04T15:35:59.658Z,99010.00
2023-03-04T15:38:27.849Z,99013.00
2023-03-04T15:40:55.240Z,99009.00
2023-03-04T15:43:23.180Z,99005.00
2023-03-04T15:45:50.879Z,99002.00
2023-03-04T15:48:18.524Z,99003.00
2023-03-04T15:50:49.565Z,99000.00
2023-03-04T15:53:23.420Z,99007.00
2023-03-04T15:55:50.005Z,99001.00
2023-03-04T15:58:16.664Z,98995.00
2023-03-04T16:00:43.245Z,99002.00
2023-03-04T16:03:17.277Z,98999.00
2023-03-04T16:05:46.406Z,99001.00
2023-03-04T16:08:15.806Z,99010.00
2023-03-04T16:10:43.881Z,99000.00
2023-03-04T16:13:15.581Z,99002.00
2023-03-04T16:15:43.256Z,99013.00
2023-03-04T16:18:11.618Z,98993.00
2023-03-04T16:20:39.180Z,99004.00
2023-03-04T16:23:06.392Z,99016.00
2023-03-04T16:25:33.655Z,99005.00
2023-03-04T16:28:02.881Z,99005.00
2023-03-04T16:30:30.291Z,99004.00
2023-03-04T16:32:57.077Z,99005.00
2023-03-04T16:35:27.769Z,99003.00
2023-03-04T16:37:54.865Z,99006.00
2023-03-04T16:40:27.271Z,99006.00
2023-03-04T16:42:54.616Z,99010.00
2023-03-04T16:45:25.835Z,99003.00
2023-03-04T16:47:52.751Z,99002.00
2023-03-04T16:50:22.057Z,98997.00
2023-03-04T16:52:49.282Z,99001.00
2023-03-04T16:55:25.042Z,98999.00
2023-03-04T16:57:52.403Z,98995.00
2023-03-04T17:00:20.264Z,98996.00
2023-03-04T17:02:53.852Z,99000.00
2023-03-04T17:05:23.311Z,98999.00
2023-03-04T17:07:49.916Z,99005.00
2023-03-04T17:10:17.128Z,99005.00
2023-03-04T17:12:44.011Z,99009.00
2023-03-04T17:15:12.904Z,99006.00
2023-03-04T17:17:40.217Z,99010.00
2023-03-04T17:20:08.755Z,99003.00
2023-03-04T17:22:35.608Z,99007.00
2023-03-04T17:25:03.007Z,99016.00
2023-03-04T17:27:30.504Z,99010.00
2023-03-04T17:29:57.285Z,99001.00
2023-03-04T17:32:24.372Z,99001.00
2023-03-04T17:34:54.588Z,98999.00
2023-03-04T17:37:21.750Z,99006.00
2023-03-04T17:39:48.273Z,98999.00
2023-03-04T17:42:14.892Z,98994.00
2023-03-04T17:44:41.441Z,98998.00
2023-03-04T17:47:08.412Z,99000.00
2023-03-04T17:49:34.930Z,98999.00
2023-03-04T17:52:04.028Z,99006.00
2023-03-04T17:54:31.004Z,99009.00
2023-03-04T17:56:57.543Z,99002.00
2023-03-04T17:59:24.613Z,99006.00
2023-03-04T18:01:54.053Z,98996.00
2023-03-04T18:04:21.393Z,99003.00
2023-03-04T18:06:47.932Z,98992.00
2023-03-04T18:09:14.713Z,99004.00
2023-03-04T18:11:42.210Z,98998.00
2023-03-04T18:14:09.173Z,98998.00
2023-03-04T18:16:35.834Z,99003.00
2023-03-04T18:19:02.671Z,98989.00
2023-03-04T18:21:29.932Z,98985.00
2023-03-04T18:23:57.413Z,98988.00
2023-03-04T18:26:25.484Z,98985.00
2023-03-04T18:28:54.140Z,98993.00
2023-03-04T18:31:28.896Z,98975.00
2023-03-04T18:33:59.322Z,98981.00
2023-03-04T18:36:26.595Z,98979.00
2023-03-04T18:38:53.257Z,98982.00
2023-03-04T18:41:19.812Z,98972.00
2023-03-04T18:43:46.290Z,98973.00
2023-03-04T18:46:30.489Z,98984.00
2023-03-04T18:49:02.075Z,98977.00
2023-03-04T18:51:28.985Z,98969.00
2023-03-04T18:53:55.547Z,98975.00
2023-03-04T18:56:31.395Z,98978.00
2023-03-04T18:58:58.740Z,98971.00
2023-03-04T19:01:25.508Z,98968.00
2023-03-04T19:03:54.543Z,98975.00
2023-03-04T19:12:14.861Z,98986.00
2023-03-04T19:14:41.690Z,98981.00
2023-03-04T19:17:08.284Z,98988.00
2023-03-04T19:19:36.393Z,98976.00
2023-03-04T19:22:03.714Z,98985.00
2023-03-04T19:24:30.236Z,98977.00
2023-03-04T19:26:56.808Z,98981.00
2023-03-04T19:29:23.290Z,98989.00
2023-03-04T19:31:49.746Z,98981.00
2023-03-04T19:34:16.227Z,98985.00
2023-03-04T19:36:42.726Z,98981.00
2023-03-04T19:39:10.290Z,98979.00
2023-03-04T19:41:37.030Z,98970.00
2023-03-04T19:44:03.458Z,98968.00
2023-03-04T19:46:32.146Z,98972.00
2023-03-04T19:48:59.314Z,98968.00
2023-03-04T19:51:26.641Z,98967.00
2023-03-04T19:53:54.391Z,98966.00
2023-03-04T19:56:22.038Z,98962.00
2023-03-04T19:58:48.665Z,98956.00
2023-03-04T20:01:28.170Z,98964.00
2023-03-04T20:04:00.578Z,98956.00
2023-03-04T20:06:27.584Z,98960.00
2023-03-04T20:08:59.028Z,98957.00
2023-03-04T20:11:27.234Z,98947.00
2023-03-04T20:13:55.115Z,98957.00
2023-03-04T20:16:21.646Z,98956.00
2023-03-04T20:18:48.204Z,98948.00
2023-03-04T20:21:14.781Z,98950.00
2023-03-04T20:23:41.300Z,98947.00
2023-03-04T20:26:07.815Z,98943.00
2023-03-04T20:28:48.456Z,98956.00
2023-03-04T20:31:22.671Z,98960.00
2023-03-04T20:33:50.195Z,98953.00
2023-03-04T20:36:18.020Z,98957.00
2023-03-04T20:38:44.740Z,98967.00
2023-03-04T20:41:11.605Z,98956.00
2023-03-04T20:43:38.136Z,98955.00
2023-03-04T20:46:45.003Z,98956.00
2023-03-04T20:49:13.160Z,98967.00
2023-03-04T20:51:42.155Z,98949.00
2023-03-04T20:54:09.255Z,98944.00
2023-03-04T20:56:36.477Z,98950.00
2023-03-04T20:59:05.722Z,98953.00
2023-03-04T21:01:32.526Z,98949.00
2023-03-04T21:04:00.561Z,98953.00
2023-03-04T21:06:29.067Z,98958.00
2023-03-04T21:08:59.371Z,98956.00
2023-03-04T21:11:25.859Z,98949.00
2023-03-04T21:13:57.614Z,98953.00
2023-03-04T21:16:30.026Z,98951.00
2023-03-04T21:18:56.612Z,98946.00
2023-03-04T21:21:25.186Z,98945.00
2023-03-04T21:23:53.716Z,98939.00
2023-03-04T21:26:22.200Z,98936.00
2023-03-04T21:28:49.401Z,98941.00
2023-03-04T21:31:18.819Z,98942.00
2023-03-04T21:33:46.553Z,98942.00
2023-03-04T21:36:13.909Z,98941.00
2023-03-04T21:38:41.458Z,98942.00
2023-03-04T21:41:14.201Z,98943.00
2023-03-04T21:43:40.962Z,98946.00
2023-03-04T21:46:08.965Z,98944.00
2023-03-04T21:48:36.276Z,98947.00
2023-03-04T21:51:05.394Z,98944.00
2023-03-04T21:53:33.125Z,98944.00
2023-03-04T21:55:59.631Z,98944.00
2023-03-04T21:58:26.312Z,98941.00
2023-03-04T22:00:53.207Z,98939.00
2023-03-04T22:03:21.477Z,98936.00
2023-03-04T22:05:48.430Z,98939.00
2023-03-04T22:08:16.529Z,98931.00
2023-03-04T22:10:44.006Z,98937.00
2023-03-04T22:13:12.998Z,98936.00
2023-03-04T22:15:41.685Z,98933.00
2023-03-04T22:18:11.576Z,98933.00
2023-03-04T22:20:40.396Z,98926.00
2023-03-04T22:23:07.678Z,98933.00
2023-03-04T22:25:40.342Z,98929.00
2023-03-04T22:28:07.487Z,98924.00
2023-03-04T22:30:35.581Z,98918.00
2023-03-04T22:33:02.348Z,98920.00
2023-03-04T22:35:28.805Z,98926.00
2023-03-04T22:37:55.314Z,98920.00
2023-03-04T22:40:21.781Z,98922.00
2023-03-04T22:42:49.144Z,98914.00
2023-03-04T22:45:17.899Z,98909.00
2023-03-04T22:47:50.077Z,98904.00
2023-03-04T22:50:18.257Z,98908.00
2023-03-04T22:52:44.995Z,98908.00
2023-03-04T22:55:12.297Z,98917.00
2023-03-04T22:57:38.815Z,98913.00
2023-03-04T23:00:15.754Z,98909.00
2023-03-04T23:02:42.364Z,98909.00
2023-03-04T23:05:09.886Z,98911.00
2023-03-04T23:07:36.953Z,98918.00
2023-03-04T23:10:04.721Z,98913.00
2023-03-04T23:12:32.878Z,98920.00
2023-03-04T23:14:59.410Z,98909.00
2023-03-04T23:17:25.969Z,98915.00
2023-03-04T23:19:52.434Z,98912.00
2023-03-04T23:22:19.183Z,98910.00
2023-03-04T23:24:45.606Z,98919.00
2023-03-04T23:27:12.083Z,98913.00
2023-03-04T23:29:38.544Z,98917.00
2023-03-04T23:32:05.369Z,98912.00
2023-03-04T23:34:31.812Z,98914.00
2023-03-04T23:36:58.285Z,98907.00
2023-03-04T23:39:24.828Z,98897.00
2023-03-04T23:41:51.236Z,98907.00
2023-03-04T23:44:17.830Z,98897.00
2023-03-04T23:46:44.326Z,98895.00
2023-03-04T23:49:14.444Z,98890.00
2023-03-04T23:51:40.973Z,98894.00
2023-03-04T23:54:08.332Z,98881.00
2023-03-04T23:56:34.807Z,98894.00
2023-03-04T23:59:01.258Z,98889.00
